WEATHER DATA

YESTERDAY
Time Temp. Dewp. Hum. Bar.
00:10 6.5 1.6 71 1010.2
00:19 6.6 2.5 75 1010.4
00:29 6.9 2.2 72 1010.6
00:39 6.9 2.2 72 1010.7
00:50 6.9 3.2 77 1010.7
01:00 6.9 3.5 79 1010.7
01:09 6.8 3.6 80 1010.7
01:20 6.6 3.6 81 1010.6
01:30 6.5 3.8 83 1010.6
01:40 6.4 4.1 85 1010.7
01:50 6.3 4 85 1010.8
02:00 6.2 4.2 87 1010.8
02:10 6.1 4.3 88 1010.8
02:20 5.9 4.1 88 1010.9
02:30 5.8 4 88 1011.1
02:40 5.7 4 89 1011.3
02:50 5.5 3.8 89 1011.3
03:00 5.4 3.9 90 1011.4
03:10 5.3 3.8 90 1011.4
03:20 5.2 3.9 91 1011.4
03:30 5.1 3.8 91 1011.5
03:41 5 3.7 91 1011.5
03:50 4.9 3.6 91 1011.5
04:00 5 3.8 92 1011.6
04:11 5 3.8 92 1011.6
04:21 5.1 3.9 92 1011.6
04:30 5.2 3.9 91 1011.6
04:40 5.2 3.9 91 1011.6
04:51 5.2 3.9 91 1011.7
05:01 5.3 4 91 1011.6
05:10 5.3 4 91 1011.7
05:21 5.2 3.9 91 1011.9
05:31 5.1 3.8 91 1011.9
05:41 5.1 3.8 91 1011.9
05:50 5 3.7 91 1011.8
06:01 5 3.7 91 1011.8
06:11 5.1 3.8 91 1011.8
06:21 5 3.5 90 1011.9
06:31 5 3.5 90 1011.9
06:41 5 3.5 90 1011.9
06:51 5 3.5 90 1012
07:01 4.9 3.6 91 1012.2
07:11 4.9 3.6 91 1012.7
07:21 4.9 3.4 90 1012.9
07:31 4.8 3.3 90 1013
07:42 4.7 3.2 90 1013.4
07:51 4.6 3.1 90 1013.4
08:01 4.4 3.1 91 1013.5
08:11 4.3 3 91 1013.5
08:22 4.2 2.9 91 1013.6
08:31 4 2.7 91 1013.8
08:41 3.7 2.4 91 1014
08:52 3.3 2 91 1014.1
09:02 2.9 1.6 91 1014.2
09:11 2.6 1.3 91 1014.5
09:22 2.2 1 92 1014.7
09:32 1.8 0.6 92 1014.8
09:42 1.4 0.2 92 1014.7
09:51 1.2 0 92 1014.9
10:02 0.9 -0.2 92 1015
10:12 0.6 -0.5 92 1015.1
10:22 0.4 -0.7 92 1015.5
10:32 0.2 -0.7 93 1015.8
10:42 0.1 -0.8 93 1016
10:52 0 -0.9 93 1016.2
11:02 -0.1 -1 93 1016.1
11:13 -0.1 -0.8 94 1016.2
11:22 0 -0.7 94 1016.4
11:32 0.1 -0.7 94 1016.7
11:43 0.2 -0.6 94 1016.9
11:53 0.1 -0.7 94 1017
12:02 0.1 -0.7 94 1017.1
12:12 0.2 -0.4 95 1017.3
12:23 0.2 -0.4 95 1017.2
12:33 0.4 -0.3 95 1017.4
12:42 0.5 -0.2 95 1017.7
12:53 0.5 -0.2 95 1017.8
13:03 0.4 -0.3 95 1017.9
13:13 0.3 -0.4 95 1018.1
13:23 0.2 -0.4 95 1018.2
13:33 0.3 -0.4 95 1018.5
13:43 0.4 -0.3 95 1018.9
13:53 0.3 -0.4 95 1018.9
14:03 0.2 -0.4 95 1018.8
14:13 0.2 -0.4 95 1019.3
14:23 0.1 -0.4 96 1019.4
14:33 0 -0.5 96 1019.5
14:43 -0.1 -0.6 96 1019.7
14:53 -0.1 -0.6 96 1020
15:03 -0.1 -0.6 96 1020
15:14 -0.2 -0.7 96 1020.3
15:23 -0.2 -0.7 96 1020.5
15:33 -0.3 -0.8 96 1020.6
15:44 -0.3 -0.8 96 1020.8
15:54 -0.2 -0.6 97 1020.6
16:03 -0.1 -0.5 97 1020.6
16:13 -0.1 -0.5 97 1020.6
16:24 0 -0.4 97 1020.9
16:34 0 -0.4 97 1021
16:43 0 -0.4 97 1021.1
16:54 0 -0.4 97 1021.2
17:04 0 -0.4 97 1021.3
17:14 0 -0.4 97 1021.4
17:23 0 -0.4 97 1021.5
17:34 0 -0.4 97 1021.8
17:44 0 -0.4 97 1021.9
17:54 0 -0.4 97 1022
18:05 0 -0.4 97 1022.1
18:14 -0.1 -0.5 97 1022.1
18:24 -0.1 -0.5 97 1022.2
18:34 -0.1 -0.5 97 1022.3
18:45 -0.1 -0.5 97 1022.4
18:54 -0.1 -0.5 97 1022.4
19:04 -0.2 -0.6 97 1022.4
19:15 -0.2 -0.6 97 1022.4
19:25 -0.2 -0.6 97 1022.5
19:34 -0.3 -0.7 97 1022.6
19:44 -0.4 -0.8 97 1022.7
19:55 -0.5 -0.9 97 1022.7
20:05 -0.7 -1.1 97 1022.9
20:14 -0.8 -1.2 97 1023
20:25 -0.8 -1.2 97 1023.2
20:35 -0.9 -1.3 97 1023.2
20:45 -1.1 -1.5 97 1023.3
20:55 -1.1 -1.5 97 1023.4
21:05 -1.2 -1.6 97 1023.4
21:15 -1.3 -1.7 97 1023.5
21:25 -1.4 -1.8 97 1023.5
21:35 -1.6 -2 97 1023.5
21:45 -1.7 -2.1 97 1023.6
21:55 -1.7 -2.1 97 1023.7
22:05 -1.7 -2.1 97 1023.7
22:15 -1.8 -2.2 97 1023.7
22:25 -1.8 -2.2 97 1023.7
22:35 -1.7 -2.1 97 1023.6
22:46 -1.7 -2.1 97 1023.5
22:55 -1.7 -2.1 97 1023.5
23:05 -1.6 -2 97 1023.5
23:16 -1.6 -2 97 1023.5
23:26 -1.5 -1.9 97 1023.5
23:35 -1.5 -1.9 97 1023.5
23:45 -1.5 -1.9 97 1023.6
23:56 -1.5 -1.9 97 1023.6

DAY STATISTIC

2021-04-12
TEMPERATURE
AVERAGE
1.9
HIGH
6.9
00:29
LOW
-1.8
22:15
PRESSURE
AVERAGE
1017.1
HIGH
1023.7
21:55
LOW
1010.2
00:10
DEWPOINT
AVERAGE
0.8
HIGH
4.3
02:10
LOW
-2.2
22:15
HUMIDITY
AVERAGE
93
HIGH
97
15:54
LOW
71
00:10
TEMPERATURE (°C)
LOW
-1.8
HIGH
6.9
AVERAGE
1.9
PRESSURE (hpa)
LOW
1010.2
HIGH
1023.7
AVERAGE
1017.1
DEVICE